sensor_id;sensor_type;location;lat;lon;timestamp;pressure;altitude;pressure_sealevel;temperature;humidity
78613;BME280;67933;51.060;3.638;2023-09-19T00:01:07;101047.91;;;13.31;78.04
78613;BME280;67933;51.060;3.638;2023-09-19T00:03:34;101054.28;;;13.29;78.36
78613;BME280;67933;51.060;3.638;2023-09-19T00:06:03;101055.06;;;13.31;78.17
78613;BME280;67933;51.060;3.638;2023-09-19T00:08:29;101051.31;;;13.33;78.38
78613;BME280;67933;51.060;3.638;2023-09-19T00:10:54;101046.94;;;13.32;78.87
78613;BME280;67933;51.060;3.638;2023-09-19T00:13:20;101058.00;;;13.26;78.72
78613;BME280;67933;51.060;3.638;2023-09-19T00:15:47;101055.78;;;13.33;78.64
78613;BME280;67933;51.060;3.638;2023-09-19T00:18:16;101055.16;;;13.29;78.75
78613;BME280;67933;51.060;3.638;2023-09-19T00:20:42;101057.50;;;13.34;79.05
78613;BME280;67933;51.060;3.638;2023-09-19T00:23:07;101059.53;;;13.30;79.59
78613;BME280;67933;51.060;3.638;2023-09-19T00:25:36;101062.19;;;13.30;79.71
78613;BME280;67933;51.060;3.638;2023-09-19T00:28:03;101057.13;;;13.26;80.62
78613;BME280;67933;51.060;3.638;2023-09-19T00:30:30;101056.69;;;13.19;80.46
78613;BME280;67933;51.060;3.638;2023-09-19T00:32:56;101071.13;;;13.29;79.68
78613;BME280;67933;51.060;3.638;2023-09-19T00:35:22;101062.38;;;13.27;80.38
78613;BME280;67933;51.060;3.638;2023-09-19T00:37:51;101074.66;;;13.30;80.33
78613;BME280;67933;51.060;3.638;2023-09-19T00:40:17;101071.59;;;13.36;79.30
78613;BME280;67933;51.060;3.638;2023-09-19T00:42:46;101059.13;;;13.36;79.71
78613;BME280;67933;51.060;3.638;2023-09-19T00:45:13;101069.69;;;13.38;80.32
78613;BME280;67933;51.060;3.638;2023-09-19T00:47:41;101066.78;;;13.41;80.16
78613;BME280;67933;51.060;3.638;2023-09-19T00:50:07;101062.63;;;13.37;80.39
78613;BME280;67933;51.060;3.638;2023-09-19T00:52:34;101064.53;;;13.35;80.52
78613;BME280;67933;51.060;3.638;2023-09-19T00:55:08;101077.22;;;13.31;80.76
78613;BME280;67933;51.060;3.638;2023-09-19T00:57:34;101078.53;;;13.24;81.28
78613;BME280;67933;51.060;3.638;2023-09-19T01:00:02;101074.75;;;13.28;81.46
78613;BME280;67933;51.060;3.638;2023-09-19T01:02:32;101076.47;;;13.29;81.54
78613;BME280;67933;51.060;3.638;2023-09-19T01:04:58;101070.28;;;13.29;81.16
78613;BME280;67933;51.060;3.638;2023-09-19T01:07:25;101070.81;;;13.34;81.36
78613;BME280;67933;51.060;3.638;2023-09-19T01:09:50;101072.53;;;13.35;81.38
78613;BME280;67933;51.060;3.638;2023-09-19T01:12:23;101069.22;;;13.31;81.82
78613;BME280;67933;51.060;3.638;2023-09-19T01:14:59;101075.28;;;13.33;81.87
78613;BME280;67933;51.060;3.638;2023-09-19T01:17:33;101077.78;;;13.36;81.57
78613;BME280;67933;51.060;3.638;2023-09-19T01:22:53;101072.69;;;13.46;81.72
78613;BME280;67933;51.060;3.638;2023-09-19T01:30:32;101080.69;;;13.46;82.64
78613;BME280;67933;51.060;3.638;2023-09-19T01:32:58;101080.78;;;13.44;83.44
78613;BME280;67933;51.060;3.638;2023-09-19T01:35:24;101085.25;;;13.44;83.87
78613;BME280;67933;51.060;3.638;2023-09-19T01:37:50;101090.19;;;13.50;84.23
78613;BME280;67933;51.060;3.638;2023-09-19T01:40:18;101086.38;;;13.54;83.97
78613;BME280;67933;51.060;3.638;2023-09-19T01:47:53;101077.75;;;13.63;83.65
78613;BME280;67933;51.060;3.638;2023-09-19T01:50:33;101084.50;;;13.69;83.33
78613;BME280;67933;51.060;3.638;2023-09-19T01:53:11;101070.41;;;13.67;83.00
78613;BME280;67933;51.060;3.638;2023-09-19T01:55:48;101076.16;;;13.61;83.33
78613;BME280;67933;51.060;3.638;2023-09-19T01:58:16;101074.78;;;13.68;83.15
78613;BME280;67933;51.060;3.638;2023-09-19T02:00:44;101081.06;;;13.67;83.63
78613;BME280;67933;51.060;3.638;2023-09-19T02:03:12;101077.66;;;13.65;83.09
78613;BME280;67933;51.060;3.638;2023-09-19T02:05:39;101080.31;;;13.65;83.34
78613;BME280;67933;51.060;3.638;2023-09-19T02:08:05;101082.78;;;13.68;82.84
78613;BME280;67933;51.060;3.638;2023-09-19T02:10:30;101075.94;;;13.64;83.28
78613;BME280;67933;51.060;3.638;2023-09-19T02:12:56;101080.53;;;13.62;83.42
78613;BME280;67933;51.060;3.638;2023-09-19T02:15:22;101085.75;;;13.63;83.09
78613;BME280;67933;51.060;3.638;2023-09-19T02:17:47;101079.25;;;13.67;82.89
78613;BME280;67933;51.060;3.638;2023-09-19T02:20:13;101074.13;;;13.64;83.20
78613;BME280;67933;51.060;3.638;2023-09-19T02:22:41;101071.88;;;13.58;84.12
78613;BME280;67933;51.060;3.638;2023-09-19T02:25:07;101074.63;;;13.57;84.33
78613;BME280;67933;51.060;3.638;2023-09-19T02:27:33;101080.41;;;13.63;83.87
78613;BME280;67933;51.060;3.638;2023-09-19T02:29:58;101076.00;;;13.76;83.54
78613;BME280;67933;51.060;3.638;2023-09-19T02:32:24;101084.41;;;13.83;83.44
78613;BME280;67933;51.060;3.638;2023-09-19T02:34:49;101086.88;;;13.86;83.60
78613;BME280;67933;51.060;3.638;2023-09-19T02:37:17;101085.63;;;13.92;83.55
78613;BME280;67933;51.060;3.638;2023-09-19T02:39:44;101084.75;;;13.91;84.10
78613;BME280;67933;51.060;3.638;2023-09-19T02:42:10;101090.44;;;13.99;83.53
78613;BME280;67933;51.060;3.638;2023-09-19T02:44:35;101092.88;;;14.02;84.03
78613;BME280;67933;51.060;3.638;2023-09-19T02:47:00;101096.84;;;14.09;83.81
78613;BME280;67933;51.060;3.638;2023-09-19T02:49:26;101099.50;;;14.09;84.39
78613;BME280;67933;51.060;3.638;2023-09-19T02:51:51;101120.84;;;14.09;85.16
78613;BME280;67933;51.060;3.638;2023-09-19T02:54:17;101103.66;;;14.01;86.49
78613;BME280;67933;51.060;3.638;2023-09-19T02:56:43;101106.19;;;13.90;88.27
78613;BME280;67933;51.060;3.638;2023-09-19T02:59:08;101104.06;;;13.95;87.31
78613;BME280;67933;51.060;3.638;2023-09-19T03:01:35;101103.97;;;13.96;87.35
78613;BME280;67933;51.060;3.638;2023-09-19T03:04:01;101102.91;;;13.99;87.77
78613;BME280;67933;51.060;3.638;2023-09-19T03:06:27;101092.88;;;14.02;87.72
78613;BME280;67933;51.060;3.638;2023-09-19T03:08:53;101092.69;;;14.05;87.35
78613;BME280;67933;51.060;3.638;2023-09-19T03:11:20;101096.09;;;14.07;87.26
78613;BME280;67933;51.060;3.638;2023-09-19T03:13:54;101100.03;;;14.02;88.10
78613;BME280;67933;51.060;3.638;2023-09-19T03:16:20;101097.69;;;13.97;88.80
78613;BME280;67933;51.060;3.638;2023-09-19T03:18:47;101108.00;;;13.89;89.91
78613;BME280;67933;51.060;3.638;2023-09-19T03:21:17;101105.16;;;13.92;90.40
78613;BME280;67933;51.060;3.638;2023-09-19T03:23:44;101115.81;;;13.92;91.66
78613;BME280;67933;51.060;3.638;2023-09-19T03:26:13;101110.03;;;13.85;92.13
78613;BME280;67933;51.060;3.638;2023-09-19T03:28:41;101092.84;;;13.77;92.91
78613;BME280;67933;51.060;3.638;2023-09-19T03:31:06;101099.13;;;13.76;92.53
78613;BME280;67933;51.060;3.638;2023-09-19T03:33:32;101107.88;;;13.78;92.78
78613;BME280;67933;51.060;3.638;2023-09-19T03:35:59;101101.78;;;13.76;92.28
78613;BME280;67933;51.060;3.638;2023-09-19T03:38:26;101103.06;;;13.70;92.80
78613;BME280;67933;51.060;3.638;2023-09-19T03:40:52;101107.31;;;13.73;92.58
78613;BME280;67933;51.060;3.638;2023-09-19T03:43:17;101113.72;;;13.70;93.53
78613;BME280;67933;51.060;3.638;2023-09-19T03:45:43;101113.81;;;13.69;93.12
78613;BME280;67933;51.060;3.638;2023-09-19T03:48:09;101108.28;;;13.72;92.86
78613;BME280;67933;51.060;3.638;2023-09-19T03:50:35;101107.63;;;13.68;93.49
78613;BME280;67933;51.060;3.638;2023-09-19T03:53:00;101103.00;;;13.58;93.25
78613;BME280;67933;51.060;3.638;2023-09-19T03:55:27;101108.75;;;13.52;93.23
78613;BME280;67933;51.060;3.638;2023-09-19T03:57:52;101095.06;;;13.43;94.21
78613;BME280;67933;51.060;3.638;2023-09-19T04:00:18;101092.91;;;13.36;94.10
78613;BME280;67933;51.060;3.638;2023-09-19T04:02:46;101094.16;;;13.30;94.55
78613;BME280;67933;51.060;3.638;2023-09-19T04:05:11;101089.22;;;13.24;95.04
78613;BME280;67933;51.060;3.638;2023-09-19T04:07:37;101094.94;;;13.18;95.64
78613;BME280;67933;51.060;3.638;2023-09-19T04:10:03;101095.16;;;13.15;95.72
78613;BME280;67933;51.060;3.638;2023-09-19T04:12:28;101086.31;;;13.15;95.25
78613;BME280;67933;51.060;3.638;2023-09-19T04:14:54;101091.53;;;13.16;95.40
78613;BME280;67933;51.060;3.638;2023-09-19T04:17:19;101086.31;;;13.15;95.34
78613;BME280;67933;51.060;3.638;2023-09-19T04:19:45;101096.97;;;13.15;96.01
78613;BME280;67933;51.060;3.638;2023-09-19T04:22:11;101096.84;;;13.02;96.59
78613;BME280;67933;51.060;3.638;2023-09-19T04:24:38;101108.44;;;13.01;96.67
78613;BME280;67933;51.060;3.638;2023-09-19T04:27:04;101110.38;;;12.99;97.32
78613;BME280;67933;51.060;3.638;2023-09-19T04:29:30;101115.78;;;12.97;97.35
78613;BME280;67933;51.060;3.638;2023-09-19T04:31:56;101122.91;;;12.97;97.57
78613;BME280;67933;51.060;3.638;2023-09-19T04:34:22;101126.44;;;12.97;97.64
78613;BME280;67933;51.060;3.638;2023-09-19T04:36:49;101131.66;;;12.99;97.75
78613;BME280;67933;51.060;3.638;2023-09-19T04:39:14;101141.56;;;12.97;98.30
78613;BME280;67933;51.060;3.638;2023-09-19T04:41:40;101137.00;;;12.99;98.25
78613;BME280;67933;51.060;3.638;2023-09-19T04:44:07;101139.34;;;13.03;97.72
78613;BME280;67933;51.060;3.638;2023-09-19T04:46:35;101146.31;;;13.06;98.17
78613;BME280;67933;51.060;3.638;2023-09-19T04:49:00;101152.41;;;13.08;98.23
78613;BME280;67933;51.060;3.638;2023-09-19T04:51:26;101150.47;;;13.10;98.22
78613;BME280;67933;51.060;3.638;2023-09-19T04:53:54;101151.09;;;13.15;97.63
78613;BME280;67933;51.060;3.638;2023-09-19T04:56:20;101144.59;;;13.19;98.04
78613;BME280;67933;51.060;3.638;2023-09-19T04:58:46;101141.75;;;13.22;97.53
78613;BME280;67933;51.060;3.638;2023-09-19T05:01:11;101133.19;;;13.31;97.64
78613;BME280;67933;51.060;3.638;2023-09-19T05:03:39;101132.31;;;13.31;98.02
78613;BME280;67933;51.060;3.638;2023-09-19T05:06:04;101129.75;;;13.29;98.16
78613;BME280;67933;51.060;3.638;2023-09-19T05:08:30;101125.47;;;13.27;98.10
78613;BME280;67933;51.060;3.638;2023-09-19T05:10:56;101124.41;;;13.29;98.33
78613;BME280;67933;51.060;3.638;2023-09-19T05:13:21;101126.13;;;13.30;98.19
78613;BME280;67933;51.060;3.638;2023-09-19T05:15:48;101122.72;;;13.28;98.35
78613;BME280;67933;51.060;3.638;2023-09-19T05:18:15;101118.22;;;13.29;98.51
78613;BME280;67933;51.060;3.638;2023-09-19T05:20:40;101114.16;;;13.23;98.94
78613;BME280;67933;51.060;3.638;2023-09-19T05:23:06;101132.91;;;13.22;98.98
78613;BME280;67933;51.060;3.638;2023-09-19T05:25:38;101131.84;;;13.24;99.33
78613;BME280;67933;51.060;3.638;2023-09-19T05:28:08;101128.44;;;13.22;99.27
78613;BME280;67933;51.060;3.638;2023-09-19T05:30:35;101140.81;;;13.23;98.99
78613;BME280;67933;51.060;3.638;2023-09-19T05:33:02;101133.94;;;13.19;99.38
78613;BME280;67933;51.060;3.638;2023-09-19T05:35:29;101142.72;;;13.21;99.93
78613;BME280;67933;51.060;3.638;2023-09-19T05:37:54;101151.47;;;13.23;99.63
78613;BME280;67933;51.060;3.638;2023-09-19T05:40:21;101147.25;;;13.33;98.88
78613;BME280;67933;51.060;3.638;2023-09-19T05:42:47;101132.56;;;13.40;99.00
78613;BME280;67933;51.060;3.638;2023-09-19T05:45:13;101146.66;;;13.42;98.62
78613;BME280;67933;51.060;3.638;2023-09-19T05:47:42;101141.72;;;13.36;98.43
78613;BME280;67933;51.060;3.638;2023-09-19T05:50:09;101141.72;;;13.36;98.22
78613;BME280;67933;51.060;3.638;2023-09-19T05:52:35;101139.16;;;13.35;98.97
78613;BME280;67933;51.060;3.638;2023-09-19T05:55:06;101149.31;;;13.42;98.54
78613;BME280;67933;51.060;3.638;2023-09-19T05:57:33;101141.88;;;13.47;98.18
78613;BME280;67933;51.060;3.638;2023-09-19T05:59:59;101148.63;;;13.53;98.22
78613;BME280;67933;51.060;3.638;2023-09-19T06:02:24;101152.50;;;13.62;97.08
78613;BME280;67933;51.060;3.638;2023-09-19T06:04:54;101153.25;;;13.64;97.12
78613;BME280;67933;51.060;3.638;2023-09-19T06:07:21;101149.53;;;13.66;97.16
78613;BME280;67933;51.060;3.638;2023-09-19T06:09:47;101153.81;;;13.69;97.28
78613;BME280;67933;51.060;3.638;2023-09-19T06:12:12;101156.41;;;13.70;97.61
78613;BME280;67933;51.060;3.638;2023-09-19T06:14:42;101162.56;;;13.71;97.47
78613;BME280;67933;51.060;3.638;2023-09-19T06:17:08;101157.88;;;13.74;97.13
78613;BME280;67933;51.060;3.638;2023-09-19T06:19:34;101148.84;;;13.77;96.80
78613;BME280;67933;51.060;3.638;2023-09-19T06:21:59;101156.44;;;13.83;96.49
78613;BME280;67933;51.060;3.638;2023-09-19T06:24:25;101156.63;;;13.80;97.29
78613;BME280;67933;51.060;3.638;2023-09-19T06:26:51;101161.75;;;13.83;97.20
78613;BME280;67933;51.060;3.638;2023-09-19T06:29:17;101153.84;;;13.81;97.18
78613;BME280;67933;51.060;3.638;2023-09-19T06:31:43;101166.03;;;13.85;97.04
78613;BME280;67933;51.060;3.638;2023-09-19T06:34:10;101163.91;;;13.91;96.79
78613;BME280;67933;51.060;3.638;2023-09-19T06:36:35;101159.03;;;13.97;96.28
78613;BME280;67933;51.060;3.638;2023-09-19T06:39:01;101170.91;;;14.06;95.97
78613;BME280;67933;51.060;3.638;2023-09-19T06:41:29;101172.72;;;14.05;96.31
78613;BME280;67933;51.060;3.638;2023-09-19T06:43:55;101162.56;;;14.10;96.42
78613;BME280;67933;51.060;3.638;2023-09-19T06:46:20;101168.66;;;14.12;96.14
78613;BME280;67933;51.060;3.638;2023-09-19T06:48:45;101164.09;;;14.14;96.11
78613;BME280;67933;51.060;3.638;2023-09-19T06:51:13;101169.25;;;14.30;95.63
78613;BME280;67933;51.060;3.638;2023-09-19T06:53:41;101151.94;;;14.36;94.43
78613;BME280;67933;51.060;3.638;2023-09-19T06:56:06;101152.66;;;14.39;94.39
78613;BME280;67933;51.060;3.638;2023-09-19T06:58:32;101155.00;;;14.44;94.04
78613;BME280;67933;51.060;3.638;2023-09-19T07:00:57;101157.56;;;14.45;93.76
78613;BME280;67933;51.060;3.638;2023-09-19T07:03:23;101148.78;;;14.56;93.27
78613;BME280;67933;51.060;3.638;2023-09-19T07:05:51;101146.56;;;14.62;92.44
78613;BME280;67933;51.060;3.638;2023-09-19T07:08:18;101147.31;;;14.77;92.93
78613;BME280;67933;51.060;3.638;2023-09-19T07:10:45;101151.88;;;15.00;91.21
78613;BME280;67933;51.060;3.638;2023-09-19T07:13:14;101152.38;;;15.18;89.71
78613;BME280;67933;51.060;3.638;2023-09-19T07:15:42;101160.56;;;15.40;88.07
78613;BME280;67933;51.060;3.638;2023-09-19T07:18:14;101152.25;;;15.69;87.28
78613;BME280;67933;51.060;3.638;2023-09-19T07:20:45;101153.03;;;15.82;86.21
78613;BME280;67933;51.060;3.638;2023-09-19T07:23:19;101154.94;;;15.93;85.56
78613;BME280;67933;51.060;3.638;2023-09-19T07:25:46;101155.97;;;16.14;84.61
78613;BME280;67933;51.060;3.638;2023-09-19T07:28:11;101146.94;;;16.04;83.76
78613;BME280;67933;51.060;3.638;2023-09-19T07:30:37;101152.34;;;16.15;83.80
78613;BME280;67933;51.060;3.638;2023-09-19T07:33:03;101145.69;;;16.32;83.98
78613;BME280;67933;51.060;3.638;2023-09-19T07:35:30;101149.34;;;16.31;83.50
78613;BME280;67933;51.060;3.638;2023-09-19T07:37:55;101145.22;;;16.38;83.57
78613;BME280;67933;51.060;3.638;2023-09-19T07:40:21;101144.09;;;16.64;81.72
78613;BME280;67933;51.060;3.638;2023-09-19T07:42:48;101133.84;;;16.69;80.98
78613;BME280;67933;51.060;3.638;2023-09-19T07:45:15;101136.41;;;16.82;81.37
78613;BME280;67933;51.060;3.638;2023-09-19T07:47:49;101125.59;;;16.95;80.41
78613;BME280;67933;51.060;3.638;2023-09-19T07:50:16;101142.03;;;16.79;80.45
78613;BME280;67933;51.060;3.638;2023-09-19T07:52:44;101137.75;;;16.99;81.03
78613;BME280;67933;51.060;3.638;2023-09-19T07:55:10;101141.28;;;16.88;80.02
78613;BME280;67933;51.060;3.638;2023-09-19T07:57:42;101153.59;;;17.02;79.56
78613;BME280;67933;51.060;3.638;2023-09-19T08:00:09;101157.63;;;16.85;80.71
78613;BME280;67933;51.060;3.638;2023-09-19T08:02:38;101148.81;;;17.27;79.02
78613;BME280;67933;51.060;3.638;2023-09-19T08:05:04;101145.69;;;17.00;79.11
78613;BME280;67933;51.060;3.638;2023-09-19T08:07:36;101144.44;;;17.38;79.64
78613;BME280;67933;51.060;3.638;2023-09-19T08:10:03;101145.16;;;17.40;76.53
78613;BME280;67933;51.060;3.638;2023-09-19T08:12:29;101146.59;;;17.55;77.75
78613;BME280;67933;51.060;3.638;2023-09-19T08:14:55;101121.59;;;17.43;78.61
78613;BME280;67933;51.060;3.638;2023-09-19T08:17:21;101135.16;;;17.42;77.59
78613;BME280;67933;51.060;3.638;2023-09-19T08:19:48;101139.91;;;17.49;77.04
78613;BME280;67933;51.060;3.638;2023-09-19T08:22:14;101130.91;;;17.39;77.54
78613;BME280;67933;51.060;3.638;2023-09-19T08:24:42;101123.41;;;17.54;77.20
78613;BME280;67933;51.060;3.638;2023-09-19T08:27:08;101124.13;;;17.67;77.76
78613;BME280;67933;51.060;3.638;2023-09-19T08:29:35;101119.16;;;17.94;75.18
78613;BME280;67933;51.060;3.638;2023-09-19T08:32:00;101110.47;;;18.02;75.29
78613;BME280;67933;51.060;3.638;2023-09-19T08:34:26;101121.09;;;18.03;75.65
78613;BME280;67933;51.060;3.638;2023-09-19T08:36:52;101125.41;;;17.84;74.51
78613;BME280;67933;51.060;3.638;2023-09-19T08:39:22;101125.06;;;17.88;73.18
78613;BME280;67933;51.060;3.638;2023-09-19T08:41:47;101136.78;;;18.29;74.39
78613;BME280;67933;51.060;3.638;2023-09-19T08:44:13;101129.47;;;18.31;73.98
78613;BME280;67933;51.060;3.638;2023-09-19T08:46:41;101129.72;;;18.28;73.76
78613;BME280;67933;51.060;3.638;2023-09-19T08:52:28;101129.72;;;18.07;72.76
78613;BME280;67933;51.060;3.638;2023-09-19T08:55:01;101120.19;;;18.35;73.71
78613;BME280;67933;51.060;3.638;2023-09-19T08:57:33;101134.56;;;18.13;72.58
78613;BME280;67933;51.060;3.638;2023-09-19T09:00:02;101144.81;;;18.40;74.00
78613;BME280;67933;51.060;3.638;2023-09-19T09:02:31;101138.03;;;18.45;71.56
78613;BME280;67933;51.060;3.638;2023-09-19T09:04:59;101140.19;;;18.52;69.30
78613;BME280;67933;51.060;3.638;2023-09-19T09:07:25;101128.72;;;17.87;72.13
78613;BME280;67933;51.060;3.638;2023-09-19T09:09:52;101130.56;;;17.76;73.12
78613;BME280;67933;51.060;3.638;2023-09-19T09:12:18;101124.34;;;17.75;74.05
78613;BME280;67933;51.060;3.638;2023-09-19T09:14:46;101124.41;;;17.64;73.42
78613;BME280;67933;51.060;3.638;2023-09-19T09:17:18;101114.25;;;17.67;73.74
78613;BME280;67933;51.060;3.638;2023-09-19T09:19:47;101115.09;;;17.68;73.56
78613;BME280;67933;51.060;3.638;2023-09-19T09:22:13;101114.75;;;17.73;73.80
78613;BME280;67933;51.060;3.638;2023-09-19T09:24:57;101114.25;;;17.99;73.29
78613;BME280;67933;51.060;3.638;2023-09-19T09:27:24;101105.66;;;18.68;70.49
78613;BME280;67933;51.060;3.638;2023-09-19T09:29:50;101098.25;;;18.91;69.90
78613;BME280;67933;51.060;3.638;2023-09-19T09:32:20;101094.94;;;19.86;66.42
78613;BME280;67933;51.060;3.638;2023-09-19T09:34:57;101099.47;;;20.34;63.66
78613;BME280;67933;51.060;3.638;2023-09-19T09:37:24;101091.44;;;20.61;62.61
78613;BME280;67933;51.060;3.638;2023-09-19T09:39:59;101090.94;;;21.12;61.15
78613;BME280;67933;51.060;3.638;2023-09-19T09:42:44;101096.44;;;21.48;59.98
78613;BME280;67933;51.060;3.638;2023-09-19T09:47:45;101086.69;;;21.20;59.73
78613;BME280;67933;51.060;3.638;2023-09-19T09:50:34;101094.88;;;21.28;60.80
78613;BME280;67933;51.060;3.638;2023-09-19T09:53:29;101086.22;;;21.24;61.59
78613;BME280;67933;51.060;3.638;2023-09-19T09:56:04;101094.72;;;21.47;59.20
78613;BME280;67933;51.060;3.638;2023-09-19T09:58:51;101084.91;;;21.46;59.17
78613;BME280;67933;51.060;3.638;2023-09-19T10:01:24;101081.13;;;21.39;61.06
78613;BME280;67933;51.060;3.638;2023-09-19T10:03:57;101081.84;;;20.40;62.70
78613;BME280;67933;51.060;3.638;2023-09-19T10:06:22;101085.44;;;19.92;63.00
78613;BME280;67933;51.060;3.638;2023-09-19T10:09:09;101074.84;;;20.66;61.41
78613;BME280;67933;51.060;3.638;2023-09-19T10:12:10;101075.56;;;21.23;59.36
78613;BME280;67933;51.060;3.638;2023-09-19T10:14:38;101079.47;;;21.73;57.00
78613;BME280;67933;51.060;3.638;2023-09-19T10:17:09;101076.69;;;21.47;59.27
78613;BME280;67933;51.060;3.638;2023-09-19T10:22:04;101084.00;;;22.78;54.91
78613;BME280;67933;51.060;3.638;2023-09-19T10:24:35;101074.75;;;23.38;52.78
78613;BME280;67933;51.060;3.638;2023-09-19T10:27:04;101075.00;;;23.11;52.84
78613;BME280;67933;51.060;3.638;2023-09-19T10:29:35;101069.25;;;22.46;56.60
78613;BME280;67933;51.060;3.638;2023-09-19T10:32:03;101049.81;;;23.19;54.33
78613;BME280;67933;51.060;3.638;2023-09-19T10:34:33;101059.25;;;24.13;51.50
78613;BME280;67933;51.060;3.638;2023-09-19T10:37:02;101071.25;;;22.18;54.80
78613;BME280;67933;51.060;3.638;2023-09-19T10:39:32;101069.66;;;21.55;56.46
78613;BME280;67933;51.060;3.638;2023-09-19T10:42:02;101064.16;;;22.17;55.13
78613;BME280;67933;51.060;3.638;2023-09-19T10:44:32;101046.66;;;22.81;54.12
78613;BME280;67933;51.060;3.638;2023-09-19T10:46:58;101059.53;;;23.37;51.04
78613;BME280;67933;51.060;3.638;2023-09-19T10:49:24;101068.06;;;23.09;53.19
78613;BME280;67933;51.060;3.638;2023-09-19T10:51:53;101067.06;;;23.18;51.24
78613;BME280;67933;51.060;3.638;2023-09-19T10:54:22;101081.06;;;22.97;51.41
78613;BME280;67933;51.060;3.638;2023-09-19T10:56:53;101081.69;;;21.96;54.19
78613;BME280;67933;51.060;3.638;2023-09-19T10:59:21;101066.66;;;21.75;54.80
78613;BME280;67933;51.060;3.638;2023-09-19T11:04:29;101062.25;;;21.57;57.01
78613;BME280;67933;51.060;3.638;2023-09-19T11:07:11;101059.25;;;20.87;58.56
78613;BME280;67933;51.060;3.638;2023-09-19T11:09:54;101047.56;;;22.38;55.84
78613;BME280;67933;51.060;3.638;2023-09-19T11:14:54;101055.41;;;21.98;54.16
78613;BME280;67933;51.060;3.638;2023-09-19T11:30:49;101061.34;;;20.66;59.15
78613;BME280;67933;51.060;3.638;2023-09-19T11:33:29;101061.44;;;20.27;61.13
78613;BME280;67933;51.060;3.638;2023-09-19T11:36:14;101047.72;;;20.11;61.23
78613;BME280;67933;51.060;3.638;2023-09-19T11:49:16;101050.13;;;20.70;61.10
78613;BME280;67933;51.060;3.638;2023-09-19T11:51:46;101044.94;;;21.85;57.87
78613;BME280;67933;51.060;3.638;2023-09-19T11:54:14;101038.78;;;23.04;55.34
78613;BME280;67933;51.060;3.638;2023-09-19T11:56:44;101033.69;;;23.01;53.64
78613;BME280;67933;51.060;3.638;2023-09-19T11:59:11;101041.59;;;23.45;53.04
78613;BME280;67933;51.060;3.638;2023-09-19T12:01:38;101033.69;;;24.24;49.80
78613;BME280;67933;51.060;3.638;2023-09-19T12:04:11;101046.56;;;22.99;52.60
78613;BME280;67933;51.060;3.638;2023-09-19T12:06:37;101039.88;;;21.64;57.01
78613;BME280;67933;51.060;3.638;2023-09-19T12:09:04;101047.53;;;21.51;58.07
78613;BME280;67933;51.060;3.638;2023-09-19T12:11:41;101048.91;;;21.20;59.93
78613;BME280;67933;51.060;3.638;2023-09-19T12:14:09;101043.47;;;20.92;60.52
78613;BME280;67933;51.060;3.638;2023-09-19T12:16:34;101044.22;;;20.85;61.17
78613;BME280;67933;51.060;3.638;2023-09-19T12:19:22;101063.84;;;20.40;61.27
78613;BME280;67933;51.060;3.638;2023-09-19T12:22:02;101062.50;;;20.91;60.39
78613;BME280;67933;51.060;3.638;2023-09-19T12:24:29;101070.63;;;21.18;59.55
78613;BME280;67933;51.060;3.638;2023-09-19T12:27:00;101056.47;;;20.79;60.03
78613;BME280;67933;51.060;3.638;2023-09-19T12:29:29;101044.66;;;21.07;59.81
78613;BME280;67933;51.060;3.638;2023-09-19T12:31:59;101065.66;;;20.86;59.99
78613;BME280;67933;51.060;3.638;2023-09-19T12:34:31;101051.19;;;20.87;59.79
78613;BME280;67933;51.060;3.638;2023-09-19T12:37:11;101048.38;;;20.79;60.91
78613;BME280;67933;51.060;3.638;2023-09-19T12:42:03;101044.00;;;20.41;62.70
78613;BME280;67933;51.060;3.638;2023-09-19T12:44:29;101034.72;;;20.53;61.84
78613;BME280;67933;51.060;3.638;2023-09-19T12:46:55;101041.13;;;20.80;60.67
78613;BME280;67933;51.060;3.638;2023-09-19T12:49:24;101053.91;;;20.41;60.88
78613;BME280;67933;51.060;3.638;2023-09-19T12:51:54;101039.66;;;19.92;61.91
78613;BME280;67933;51.060;3.638;2023-09-19T12:54:20;101026.09;;;19.74;62.64
78613;BME280;67933;51.060;3.638;2023-09-19T12:56:47;101043.50;;;19.70;63.70
78613;BME280;67933;51.060;3.638;2023-09-19T12:59:15;101052.72;;;19.87;62.95
78613;BME280;67933;51.060;3.638;2023-09-19T13:01:42;101044.19;;;19.91;63.87
78613;BME280;67933;51.060;3.638;2023-09-19T13:04:12;101038.47;;;20.23;63.11
78613;BME280;67933;51.060;3.638;2023-09-19T13:06:40;101036.75;;;20.42;61.24
78613;BME280;67933;51.060;3.638;2023-09-19T13:09:09;101027.06;;;20.58;62.94
78613;BME280;67933;51.060;3.638;2023-09-19T13:11:38;101044.47;;;20.64;59.97
78613;BME280;67933;51.060;3.638;2023-09-19T13:14:26;101036.47;;;20.99;60.83
78613;BME280;67933;51.060;3.638;2023-09-19T13:19:54;101032.13;;;21.16;60.13
78613;BME280;67933;51.060;3.638;2023-09-19T13:22:41;101020.00;;;21.02;59.98
78613;BME280;67933;51.060;3.638;2023-09-19T13:25:09;101020.59;;;20.96;60.07
78613;BME280;67933;51.060;3.638;2023-09-19T13:27:53;101024.91;;;21.17;58.62
78613;BME280;67933;51.060;3.638;2023-09-19T13:30:24;101028.59;;;20.88;60.35
78613;BME280;67933;51.060;3.638;2023-09-19T13:32:51;101025.19;;;20.59;62.23
78613;BME280;67933;51.060;3.638;2023-09-19T13:35:18;101014.34;;;20.22;61.75
78613;BME280;67933;51.060;3.638;2023-09-19T13:37:44;101033.56;;;19.99;63.49
78613;BME280;67933;51.060;3.638;2023-09-19T13:40:11;101033.88;;;19.87;63.66
78613;BME280;67933;51.060;3.638;2023-09-19T13:42:37;101029.78;;;19.64;64.54
78613;BME280;67933;51.060;3.638;2023-09-19T13:45:03;101025.50;;;19.51;64.45
78613;BME280;67933;51.060;3.638;2023-09-19T13:47:33;101036.00;;;19.54;65.29
78613;BME280;67933;51.060;3.638;2023-09-19T13:49:59;101027.75;;;19.46;64.94
78613;BME280;67933;51.060;3.638;2023-09-19T13:52:26;101030.06;;;19.51;64.49